Time;durP1;ratioP1;P1;durP2;ratioP2;P2;SDS_P1;SDS_P2;PMS_P1;PMS_P2;Temp;Humidity;BMP_temperature;BMP_pressure;BME280_temperature;BME280_humidity;BME280_pressure;Samples;Min_cycle;Max_cycle;Signal;HPM_P1;HPM_P2
2023/11/26 00:02:21;;;;;;;;;33.67;32.67;;;;;7.63;68.63;101260.53;6320124;22;44901;-82
2023/11/26 00:04:49;;;;;;;;;41.00;35.67;;;;;7.60;68.75;101255.16;6319878;22;45264;-82
2023/11/26 00:07:15;;;;;;;;;35.33;33.33;;;;;7.59;68.83;101258.63;6318985;22;47061;-82
2023/11/26 00:09:40;;;;;;;;;36.00;30.67;;;;;7.64;69.13;101256.16;6319367;22;45233;-82
2023/11/26 00:12:07;;;;;;;;;36.00;34.33;;;;;7.63;69.03;101263.19;6346766;22;44865;-83
2023/11/26 00:14:33;;;;;;;;;38.33;37.00;;;;;7.60;68.96;101260.44;6345930;22;44979;-83
2023/11/26 00:17:05;;;;;;;;;38.00;38.00;;;;;7.78;69.27;101260.16;6317567;22;47165;-83
2023/11/26 00:19:33;;;;;;;;;41.00;37.00;;;;;7.58;68.94;101256.84;6345853;22;45340;-83
2023/11/26 00:21:58;;;;;;;;;36.00;34.67;;;;;7.53;68.97;101259.31;6317547;22;44819;-83
2023/11/26 00:24:24;;;;;;;;;31.67;31.00;;;;;7.59;69.07;101269.22;6316943;22;45093;-82
2023/11/26 00:26:49;;;;;;;;;31.00;27.00;;;;;7.57;69.16;101250.66;6344418;22;45323;-82
2023/11/26 00:29:14;;;;;;;;;31.00;28.00;;;;;7.52;69.24;101253.97;6317200;22;45349;-83
2023/11/26 00:31:40;;;;;;;;;24.67;21.33;;;;;7.56;68.64;101263.81;6345336;22;45456;-83
2023/11/26 00:34:07;;;;;;;;;21.67;17.33;;;;;7.57;68.69;101255.03;6345132;22;44751;-83
2023/11/26 00:36:33;;;;;;;;;20.67;19.33;;;;;7.58;68.82;101265.66;6317416;22;47149;-83
2023/11/26 00:38:58;;;;;;;;;14.33;13.33;;;;;7.61;68.73;101256.94;6318232;22;45094;-83
2023/11/26 00:41:24;;;;;;;;;17.33;13.00;;;;;7.58;68.78;101249.78;6318200;22;45489;-83
2023/11/26 00:43:50;;;;;;;;;16.67;15.00;;;;;7.56;68.68;101247.94;6318916;22;44858;-82
2023/11/26 00:46:16;;;;;;;;;9.67;9.67;;;;;7.57;68.65;101249.72;6317629;22;47078;-82
2023/11/26 00:48:41;;;;;;;;;12.00;10.67;;;;;7.55;68.66;101248.78;6318084;22;45257;-82
2023/11/26 00:51:07;;;;;;;;;14.67;13.67;;;;;7.54;68.85;101244.34;6291143;22;44888;-82
2023/11/26 00:53:32;;;;;;;;;6.33;5.00;;;;;7.57;68.95;101240.06;6347620;22;45346;-82
2023/11/26 00:55:59;;;;;;;;;10.67;10.67;;;;;7.61;68.67;101247.25;6346112;22;47143;-82
2023/11/26 00:58:25;;;;;;;;;12.33;11.00;;;;;7.55;68.90;101243.47;6343578;22;44773;-83
2023/11/26 01:00:50;;;;;;;;;13.33;12.67;;;;;7.53;68.82;101245.19;6317472;22;45490;-83
2023/11/26 01:03:18;;;;;;;;;11.00;11.00;;;;;7.54;68.66;101249.63;6319332;22;44855;-83
2023/11/26 01:05:44;;;;;;;;;12.67;12.33;;;;;7.48;68.82;101233.56;6318137;22;47528;-83
2023/11/26 01:08:11;;;;;;;;;9.33;9.33;;;;;7.50;68.91;101243.34;6345755;22;44822;-83
2023/11/26 01:10:36;;;;;;;;;14.00;10.00;;;;;7.51;68.81;101238.94;6319319;22;45232;-83
2023/11/26 01:13:02;;;;;;;;;10.00;10.00;;;;;7.52;69.04;101246.03;6345546;22;45169;-83
2023/11/26 01:15:27;;;;;;;;;11.00;11.00;;;;;7.49;68.79;101248.56;6317917;22;46935;-83
2023/11/26 01:17:53;;;;;;;;;10.67;9.00;;;;;7.50;69.30;101242.44;6318699;22;45072;-83
2023/11/26 01:20:18;;;;;;;;;13.33;11.00;;;;;7.50;68.89;101240.69;6317919;22;45446;-83
2023/11/26 01:22:43;;;;;;;;;9.33;9.00;;;;;7.47;68.98;101239.69;6317655;22;44767;-83
2023/11/26 01:25:09;;;;;;;;;10.67;9.00;;;;;7.48;68.69;101244.13;6318362;22;47347;-83
2023/11/26 01:27:34;;;;;;;;;12.33;9.67;;;;;7.48;69.15;101245.03;6346777;22;45353;-82
2023/11/26 01:30:00;;;;;;;;;10.67;10.67;;;;;7.48;69.40;101233.56;6318187;22;44818;-82
2023/11/26 01:32:26;;;;;;;;;13.67;10.00;;;;;7.50;69.19;101245.09;6318517;22;45013;-82
2023/11/26 01:34:51;;;;;;;;;9.00;9.00;;;;;7.46;69.63;101243.19;6345495;22;46059;-82
2023/11/26 01:37:17;;;;;;;;;11.00;10.67;;;;;7.49;69.30;101237.97;6345543;22;44830;-82
2023/11/26 01:39:43;;;;;;;;;16.67;13.00;;;;;7.43;69.40;101243.94;6346652;22;45430;-82
2023/11/26 01:45:30;;;;;;;;;12.00;9.67;;;;;7.40;69.44;101239.47;6347572;22;44855;-82
2023/11/26 01:47:56;;;;;;;;;13.33;12.33;;;;;7.40;69.26;101235.94;6319770;22;44822;-82
2023/11/26 01:50:24;;;;;;;;;14.33;11.00;;;;;7.45;69.25;101236.97;6319542;22;44790;-82
2023/11/26 01:52:50;;;;;;;;;10.67;9.00;;;;;7.38;69.66;101243.81;6348725;22;44844;-83
2023/11/26 01:55:17;;;;;;;;;9.00;7.00;;;;;7.45;69.53;101251.97;6318658;22;46966;-82
2023/11/26 01:57:44;;;;;;;;;15.67;13.00;;;;;7.41;69.64;101246.56;6344422;22;44727;-82
2023/11/26 02:00:13;;;;;;;;;10.00;10.00;;;;;7.34;69.57;101239.25;6348663;22;44736;-80
2023/11/26 02:02:40;;;;;;;;;5.00;2.67;;;;;7.34;69.48;101249.84;6319904;22;44823;-83
2023/11/26 02:05:09;;;;;;;;;13.33;10.67;;;;;7.31;69.63;101244.44;6318988;22;47072;-83
2023/11/26 02:07:36;;;;;;;;;13.33;10.00;;;;;7.33;69.90;101247.13;6320104;22;44726;-83
2023/11/26 02:10:01;;;;;;;;;11.67;10.33;;;;;7.29;69.94;101245.22;6318413;22;44902;-83
2023/11/26 02:12:26;;;;;;;;;11.67;10.00;;;;;7.32;69.71;101243.59;6318659;22;44873;-83
2023/11/26 02:14:59;;;;;;;;;7.67;7.00;;;;;7.32;69.34;101254.16;6347196;22;45590;-83
2023/11/26 02:17:25;;;;;;;;;10.33;8.67;;;;;7.25;69.49;101241.59;6347562;22;44739;-82
2023/11/26 02:19:55;;;;;;;;;9.33;9.00;;;;;7.43;69.73;101257.19;6347599;22;44859;-83
2023/11/26 02:22:20;;;;;;;;;9.67;7.67;;;;;7.30;69.40;101254.97;6344156;22;45431;-83
2023/11/26 02:24:47;;;;;;;;;10.33;10.33;;;;;7.35;69.60;101261.31;6345674;22;45316;-84
2023/11/26 02:27:14;;;;;;;;;8.33;8.33;;;;;7.23;69.77;101243.28;6347506;22;45358;-84
2023/11/26 02:29:41;;;;;;;;;11.33;10.00;;;;;7.38;69.95;101258.78;6348606;22;45330;-84
2023/11/26 02:32:08;;;;;;;;;6.00;5.67;;;;;7.19;70.02;101242.25;6320140;22;44851;-84
2023/11/26 02:34:34;;;;;;;;;9.33;7.00;;;;;7.21;69.79;101251.16;6347704;22;45240;-83
2023/11/26 02:36:59;;;;;;;;;10.33;9.33;;;;;7.16;69.74;101254.47;6347026;22;44924;-84
2023/11/26 02:39:24;;;;;;;;;10.00;7.00;;;;;7.19;70.19;101252.84;6319771;22;45224;-84
2023/11/26 02:41:50;;;;;;;;;9.67;9.67;;;;;7.21;69.93;101260.81;6321342;22;44875;-82
2023/11/26 02:44:15;;;;;;;;;14.00;10.00;;;;;7.13;69.68;101251.69;6321927;22;46987;-82
2023/11/26 02:46:42;;;;;;;;;12.67;10.33;;;;;7.15;70.14;101255.31;6348776;22;44847;-82
2023/11/26 02:49:08;;;;;;;;;9.00;9.00;;;;;7.13;69.88;101246.41;6348098;22;44796;-83
2023/11/26 02:51:34;;;;;;;;;9.33;9.00;;;;;7.12;70.38;101249.91;6347679;22;44821;-83
2023/11/26 02:53:59;;;;;;;;;13.33;9.67;;;;;7.12;70.05;101248.16;6347492;22;45212;-83
2023/11/26 02:56:25;;;;;;;;;9.00;9.00;;;;;7.11;70.44;101249.03;6346317;22;45089;-83
2023/11/26 02:58:51;;;;;;;;;11.00;11.00;;;;;7.05;70.69;101237.31;6313150;22;44807;-83
2023/11/26 03:01:21;;;;;;;;;9.00;9.00;;;;;7.18;70.76;101242.19;6312922;22;44810;-83
2023/11/26 03:03:47;;;;;;;;;10.67;10.67;;;;;7.06;70.56;101252.34;6311836;22;47326;-82
2023/11/26 03:06:19;;;;;;;;;9.00;9.00;;;;;7.09;70.83;101231.28;6313632;22;45100;-83
2023/11/26 03:08:45;;;;;;;;;10.00;7.00;;;;;7.00;71.14;101240.69;6315507;22;44810;-83
2023/11/26 03:14:12;;;;;;;;;12.33;9.67;;;;;7.12;70.97;101240.22;6248479;22;45281;-83
2023/11/26 03:16:39;;;;;;;;;9.00;9.00;;;;;6.99;70.85;101238.00;6249522;22;44860;-82
2023/11/26 03:19:04;;;;;;;;;6.00;6.00;;;;;6.98;71.08;101242.38;6251830;22;44779;-82
2023/11/26 03:21:29;;;;;;;;;10.33;9.00;;;;;6.99;71.24;101238.91;6249087;22;44775;-82
2023/11/26 03:23:55;;;;;;;;;14.00;9.00;;;;;6.97;71.21;101235.28;6250207;22;45176;-83
2023/11/26 03:26:25;;;;;;;;;6.67;6.67;;;;;6.87;71.37;101225.22;6249278;22;44783;-82
2023/11/26 03:28:54;;;;;;;;;11.00;11.00;;;;;7.04;71.58;101230.22;6250989;22;44870;-83
2023/11/26 03:31:26;;;;;;;;;13.00;13.00;;;;;7.13;71.23;101235.81;6251128;22;44912;-82
2023/11/26 03:33:54;;;;;;;;;11.67;11.67;;;;;6.92;71.31;101234.22;6248572;22;47262;-83
2023/11/26 03:36:19;;;;;;;;;12.33;12.33;;;;;6.93;71.45;101236.03;6247057;22;44959;-82
2023/11/26 03:38:45;;;;;;;;;9.67;9.67;;;;;6.93;71.38;101233.38;6250199;22;44837;-82
2023/11/26 03:41:11;;;;;;;;;13.67;13.67;;;;;6.93;71.51;101233.38;6250176;22;44942;-83
2023/11/26 03:43:36;;;;;;;;;13.67;12.00;;;;;6.92;71.51;101231.56;6250264;22;45555;-82
2023/11/26 03:46:02;;;;;;;;;16.33;12.33;;;;;6.90;71.45;101232.38;6250417;22;45258;-82
2023/11/26 03:48:27;;;;;;;;;13.33;13.33;;;;;6.89;71.46;101228.81;6251093;22;45051;-83
2023/11/26 03:50:53;;;;;;;;;11.33;9.33;;;;;6.84;71.41;101224.22;6310644;22;45616;-83
2023/11/26 03:53:18;;;;;;;;;13.00;10.00;;;;;6.82;71.73;101221.50;6313255;22;46574;-83
2023/11/26 03:55:43;;;;;;;;;16.67;12.33;;;;;6.77;72.26;101225.72;6315696;22;44833;-83
2023/11/26 03:58:09;;;;;;;;;13.00;11.33;;;;;6.76;71.82;101223.91;6338711;22;44783;-83
2023/11/26 04:00:35;;;;;;;;;7.33;7.33;;;;;6.76;71.99;101234.50;6315623;22;45280;-82
2023/11/26 04:03:00;;;;;;;;;7.33;6.67;;;;;6.75;71.94;101224.78;6338324;22;46980;-83
2023/11/26 04:06:13;;;;;;;;;14.00;10.00;;;;;6.93;71.98;101228.09;6316173;22;44777;-83
2023/11/26 04:08:38;;;;;;;;;10.00;9.67;;;;;6.66;72.25;101221.78;6314730;22;44814;-82
2023/11/26 04:11:04;;;;;;;;;14.33;10.67;;;;;6.65;72.15;101230.56;6312250;22;44735;-82
2023/11/26 04:13:31;;;;;;;;;8.50;6.50;;;;;6.75;72.65;101233.59;6315084;22;45166;-83
2023/11/26 04:15:59;;;;;;;;;9.67;9.00;;;;;6.63;72.37;101227.84;6313693;22;44850;-84
2023/11/26 04:18:25;;;;;;;;;9.33;7.00;;;;;6.64;72.48;101220.81;6313948;22;44852;-83
2023/11/26 04:20:51;;;;;;;;;14.67;11.00;;;;;6.65;72.75;101225.28;6313787;22;44982;-83
2023/11/26 04:23:18;;;;;;;;;12.00;12.00;;;;;6.67;72.47;101229.78;6315953;22;45114;-84
2023/11/26 04:25:44;;;;;;;;;10.00;10.00;;;;;6.63;72.57;101221.69;6315348;22;44698;-84
2023/11/26 04:28:09;;;;;;;;;15.67;10.67;;;;;6.66;72.61;101233.25;6313404;22;44807;-83
2023/11/26 04:30:35;;;;;;;;;10.67;10.67;;;;;6.64;72.59;101229.63;6317381;22;44735;-83
2023/11/26 04:33:02;;;;;;;;;11.33;10.33;;;;;6.60;72.82;101220.72;6316747;22;45018;-83
2023/11/26 04:35:27;;;;;;;;;11.67;11.67;;;;;6.59;72.46;101221.53;6315646;22;45197;-83
2023/11/26 04:37:53;;;;;;;;;13.33;12.67;;;;;6.60;72.49;101233.00;6315420;22;45323;-83
2023/11/26 04:40:18;;;;;;;;;15.33;12.00;;;;;6.61;72.53;101226.91;6314735;22;45462;-83
2023/11/26 04:42:44;;;;;;;;;9.33;9.33;;;;;6.66;72.88;101220.03;6339699;22;47298;-83
2023/11/26 04:45:09;;;;;;;;;14.00;13.67;;;;;6.59;72.92;101224.19;6312778;22;48215;-83
2023/11/26 04:47:38;;;;;;;;;14.00;14.00;;;;;6.60;72.82;101228.66;6314756;22;45718;-84
2023/11/26 04:50:05;;;;;;;;;9.33;9.33;;;;;6.63;73.32;101234.91;6315115;22;44810;-83
2023/11/26 04:52:33;;;;;;;;;5.00;5.00;;;;;6.52;72.66;101219.50;6313081;22;46387;-83
2023/11/26 04:55:02;;;;;;;;;14.67;13.33;;;;;6.63;72.93;101213.75;6313645;22;44809;-84
2023/11/26 04:57:28;;;;;;;;;16.00;15.00;;;;;6.50;73.12;101218.53;6313856;22;44842;-83
2023/11/26 04:59:54;;;;;;;;;14.00;12.33;;;;;6.52;72.92;101224.78;6314087;22;45521;-83
2023/11/26 05:02:19;;;;;;;;;17.33;13.00;;;;;6.49;73.45;101219.41;6314795;22;44923;-83
2023/11/26 05:04:45;;;;;;;;;13.00;13.00;;;;;6.52;73.39;101227.44;6309993;22;44713;-82
2023/11/26 05:07:10;;;;;;;;;12.67;12.00;;;;;6.47;73.61;101221.09;6315732;22;44904;-83
2023/11/26 05:09:36;;;;;;;;;11.00;11.00;;;;;6.50;73.42;101225.56;6315672;22;44833;-82
2023/11/26 05:12:02;;;;;;;;;13.33;10.67;;;;;6.46;73.38;101213.97;6314240;22;45018;-82
2023/11/26 05:14:28;;;;;;;;;15.00;15.00;;;;;6.48;73.89;101217.56;6337633;22;45002;-82
2023/11/26 05:16:53;;;;;;;;;14.67;14.67;;;;;6.50;73.79;101221.19;6314239;22;44840;-82
2023/11/26 05:19:19;;;;;;;;;13.33;13.33;;;;;6.50;73.70;101215.91;6314913;22;44850;-83
2023/11/26 05:21:45;;;;;;;;;20.00;14.33;;;;;6.51;73.88;101222.09;6314524;22;45330;-82
2023/11/26 05:24:10;;;;;;;;;13.00;12.67;;;;;6.48;73.84;101212.28;6312979;22;45623;-82
2023/11/26 05:26:36;;;;;;;;;15.33;14.00;;;;;6.52;74.31;101224.78;6313996;22;45231;-82
2023/11/26 05:29:03;;;;;;;;;12.33;12.33;;;;;6.53;74.05;101221.31;6314440;22;44844;-83
2023/11/26 05:31:28;;;;;;;;;6.67;6.67;;;;;6.58;74.20;101230.34;6313549;22;47303;-83
2023/11/26 05:33:54;;;;;;;;;12.00;9.67;;;;;6.58;73.97;101219.75;6316301;22;44822;-83
2023/11/26 05:36:20;;;;;;;;;14.67;14.67;;;;;6.53;74.14;101218.66;6313139;22;44815;-82
2023/11/26 05:38:46;;;;;;;;;13.00;13.00;;;;;6.60;74.34;101226.00;6315053;22;44794;-83
2023/11/26 05:41:11;;;;;;;;;17.67;14.00;;;;;6.59;74.26;101224.19;6313675;22;45387;-83
2023/11/26 05:43:37;;;;;;;;;15.33;15.33;;;;;6.65;74.48;101220.00;6312971;22;45287;-83
2023/11/26 05:46:06;;;;;;;;;14.67;10.67;;;;;6.77;74.54;101228.38;6313321;22;44900;-82
2023/11/26 05:48:31;;;;;;;;;18.00;17.33;;;;;6.63;74.75;101216.41;6310907;22;45366;-82
2023/11/26 05:50:56;;;;;;;;;21.00;18.00;;;;;6.60;74.38;101219.78;6313070;22;45263;-83
2023/11/26 05:53:22;;;;;;;;;16.33;16.33;;;;;6.59;74.85;101216.25;6313478;22;44645;-82
2023/11/26 05:55:47;;;;;;;;;17.67;16.00;;;;;6.75;74.00;101216.84;6314540;22;45756;-82
2023/11/26 05:58:12;;;;;;;;;16.00;16.00;;;;;6.74;74.06;101205.34;6311293;22;45309;-83
2023/11/26 06:00:38;;;;;;;;;17.00;16.67;;;;;6.75;74.36;101217.75;6314229;22;47159;-82
2023/11/26 06:03:04;;;;;;;;;17.33;17.00;;;;;6.80;73.93;101207.31;6316557;22;44860;-82
2023/11/26 06:05:29;;;;;;;;;17.67;14.00;;;;;6.82;74.14;101213.56;6316918;22;44916;-82
2023/11/26 06:07:56;;;;;;;;;13.33;13.33;;;;;6.86;73.63;101215.47;6315580;22;44847;-82
2023/11/26 06:10:21;;;;;;;;;17.00;14.00;;;;;6.82;74.00;101205.63;6313605;22;47506;-83
2023/11/26 06:12:47;;;;;;;;;17.00;17.00;;;;;6.85;73.96;101213.69;6313869;22;44798;-82
2023/11/26 06:15:12;;;;;;;;;17.33;16.33;;;;;6.89;73.86;101218.25;6315619;22;45275;-82
2023/11/26 06:17:37;;;;;;;;;20.33;18.67;;;;;6.92;73.68;101221.00;6314294;22;44857;-82
2023/11/26 06:20:08;;;;;;;;;18.00;17.00;;;;;7.04;74.04;101223.19;6315210;22;45284;-82
2023/11/26 06:22:40;;;;;;;;;13.00;13.00;;;;;6.90;73.87;101227.97;6313723;22;44851;-82
2023/11/26 06:25:10;;;;;;;;;14.67;13.67;;;;;6.93;73.79;101225.44;6312377;22;44819;-82
2023/11/26 06:27:36;;;;;;;;;17.00;14.00;;;;;6.85;74.36;101216.34;6312172;22;44773;-82
2023/11/26 06:30:01;;;;;;;;;14.33;14.00;;;;;6.87;74.21;101225.22;6314852;22;46042;-82
2023/11/26 06:32:27;;;;;;;;;14.00;14.00;;;;;6.86;74.11;101219.88;6317007;22;45205;-83
2023/11/26 06:34:54;;;;;;;;;23.00;14.33;;;;;6.99;74.47;101223.03;6318152;22;45081;-82
2023/11/26 06:37:19;;;;;;;;;17.33;13.67;;;;;6.86;73.93;101230.44;6317258;22;44871;-83
2023/11/26 06:39:44;;;;;;;;;15.67;14.00;;;;;6.85;74.41;101224.28;6315427;22;45657;-82
2023/11/26 06:42:10;;;;;;;;;20.00;16.00;;;;;6.84;74.28;101226.84;6315112;22;51974;-82
2023/11/26 06:44:35;;;;;;;;;18.00;14.33;;;;;6.77;74.22;101220.44;6313311;22;44736;-84
2023/11/26 06:47:01;;;;;;;;;14.00;14.00;;;;;6.72;74.32;101211.44;6315666;22;45231;-82
2023/11/26 06:49:27;;;;;;;;;16.00;13.33;;;;;6.82;74.10;101229.44;6316026;22;47109;-82
2023/11/26 06:51:55;;;;;;;;;14.67;13.00;;;;;6.81;74.30;101238.22;6318917;22;45181;-82
2023/11/26 06:54:20;;;;;;;;;16.67;15.00;;;;;6.81;74.51;101230.28;6317511;22;44960;-82
2023/11/26 06:56:47;;;;;;;;;13.00;12.00;;;;;6.94;74.63;101224.59;6317085;22;44867;-82
2023/11/26 06:59:12;;;;;;;;;17.33;15.00;;;;;6.82;74.59;101229.44;6340224;22;47340;-82
2023/11/26 07:01:38;;;;;;;;;24.67;19.67;;;;;6.84;74.63;101232.13;6313286;22;46561;-83
2023/11/26 07:04:03;;;;;;;;;21.00;17.00;;;;;6.85;74.76;101229.56;6315700;22;44770;-82
2023/11/26 07:06:28;;;;;;;;;16.67;14.00;;;;;6.80;74.70;101225.84;6317782;22;44790;-83
2023/11/26 07:08:54;;;;;;;;;20.33;16.00;;;;;6.87;74.67;101229.59;6317148;22;45471;-83
2023/11/26 07:11:24;;;;;;;;;16.33;14.33;;;;;6.95;74.75;101223.75;6317728;22;45318;-83
2023/11/26 07:13:54;;;;;;;;;20.00;16.67;;;;;6.91;74.67;101216.56;6315996;22;45336;-83
2023/11/26 07:16:21;;;;;;;;;18.67;13.67;;;;;6.93;74.90;101211.34;6315149;22;44806;-83
2023/11/26 07:18:47;;;;;;;;;13.33;12.33;;;;;6.96;74.59;101209.69;6314074;22;46066;-83
2023/11/26 07:21:16;;;;;;;;;14.00;13.00;;;;;6.97;74.47;101219.44;6315036;22;44692;-82
2023/11/26 07:23:41;;;;;;;;;10.00;10.00;;;;;6.85;75.19;101218.97;6315180;22;44864;-83
2023/11/26 07:26:16;;;;;;;;;16.33;11.33;;;;;6.98;75.35;101215.94;6315077;22;45005;-83
2023/11/26 07:28:41;;;;;;;;;17.00;13.00;;;;;6.86;75.45;101218.13;6314552;22;47584;-82
2023/11/26 07:31:14;;;;;;;;;20.00;17.00;;;;;6.99;75.20;101212.44;6309144;22;44959;-83
2023/11/26 07:33:40;;;;;;;;;12.67;12.67;;;;;6.81;75.32;101211.78;6315670;22;44826;-82
2023/11/26 07:36:19;;;;;;;;;13.00;13.00;;;;;6.99;75.57;101222.13;6316697;22;44810;-82
2023/11/26 07:38:44;;;;;;;;;14.33;14.33;;;;;6.87;75.66;101221.66;6316517;22;45155;-82
2023/11/26 07:41:10;;;;;;;;;13.33;13.33;;;;;6.91;75.61;101235.06;6313898;22;45320;-83
2023/11/26 07:43:40;;;;;;;;;19.33;16.67;;;;;7.04;75.44;101220.53;6315760;22;45333;-84
2023/11/26 07:46:07;;;;;;;;;26.67;24.67;;;;;7.01;75.82;101231.03;6315841;22;44705;-83
2023/11/26 07:48:33;;;;;;;;;24.33;24.33;;;;;6.99;75.79;101238.00;6313612;22;47055;-83
2023/11/26 07:50:59;;;;;;;;;28.67;26.00;;;;;6.98;75.56;101234.44;6340681;22;45430;-83
2023/11/26 07:53:25;;;;;;;;;31.67;30.67;;;;;6.98;75.40;101226.50;6315221;22;44799;-83
2023/11/26 07:55:56;;;;;;;;;17.33;15.33;;;;;7.00;75.50;101235.38;6316469;22;45395;-84
2023/11/26 07:58:25;;;;;;;;;33.00;27.33;;;;;7.25;75.76;101240.66;6321532;22;47242;-83
2023/11/26 08:00:51;;;;;;;;;27.67;27.33;;;;;7.19;75.57;101246.63;6319967;22;45356;-83
2023/11/26 08:03:17;;;;;;;;;25.00;25.00;;;;;7.20;75.26;101253.75;6347315;22;44814;-83
2023/11/26 08:05:43;;;;;;;;;36.33;33.33;;;;;7.23;75.46;101248.56;6318407;22;44838;-83
2023/11/26 08:08:11;;;;;;;;;22.33;21.67;;;;;7.31;75.18;101244.44;6346720;22;45211;-83
2023/11/26 08:10:37;;;;;;;;;26.67;24.00;;;;;7.29;75.25;101237.28;6319789;22;44763;-82
2023/11/26 08:13:02;;;;;;;;;24.00;19.33;;;;;7.41;74.65;101243.00;6320049;22;45489;-83
2023/11/26 08:15:28;;;;;;;;;24.67;22.00;;;;;7.37;74.73;101242.03;6347672;22;45106;-82
2023/11/26 08:17:55;;;;;;;;;23.00;21.00;;;;;7.48;74.76;101250.31;6347003;22;47014;-83
2023/11/26 08:20:23;;;;;;;;;25.33;22.33;;;;;7.60;75.34;101249.84;6348883;22;45694;-83
2023/11/26 08:22:59;;;;;;;;;20.33;20.33;;;;;7.70;75.07;101246.66;6320213;22;44802;-82
2023/11/26 08:25:33;;;;;;;;;22.33;21.67;;;;;7.53;74.63;101256.66;6344222;22;44816;-82
2023/11/26 08:28:01;;;;;;;;;19.33;19.33;;;;;7.68;74.72;101258.94;6347776;22;45536;-82
2023/11/26 08:30:42;;;;;;;;;24.33;22.33;;;;;7.75;74.42;101260.06;6319166;22;45350;-83
2023/11/26 08:33:09;;;;;;;;;15.67;15.67;;;;;7.82;74.16;101260.31;6347972;22;44802;-82
2023/11/26 08:35:35;;;;;;;;;23.00;20.67;;;;;7.91;74.30;101266.75;6347965;22;45389;-83
2023/11/26 08:38:02;;;;;;;;;26.67;22.33;;;;;8.04;73.99;101261.03;6344545;22;45184;-84
2023/11/26 08:40:33;;;;;;;;;18.00;17.00;;;;;8.06;73.64;101255.75;6346475;22;44771;-83
2023/11/26 08:43:04;;;;;;;;;12.00;12.00;;;;;8.27;73.93;101258.22;6319244;22;45337;-83
2023/11/26 08:45:32;;;;;;;;;17.33;17.00;;;;;8.26;73.40;101254.69;6319027;22;44812;-84
2023/11/26 08:47:58;;;;;;;;;19.00;17.33;;;;;8.12;73.31;101253.31;6318385;22;46903;-83
2023/11/26 08:50:27;;;;;;;;;27.67;24.67;;;;;8.29;73.34;101254.75;6318590;22;45011;-83
2023/11/26 08:52:55;;;;;;;;;18.67;18.67;;;;;8.16;73.44;101253.47;6346297;22;45310;-84
2023/11/26 08:55:20;;;;;;;;;21.67;21.00;;;;;8.19;73.52;101256.22;6348993;22;44769;-83
2023/11/26 08:57:46;;;;;;;;;21.33;20.67;;;;;8.28;73.53;101252.97;6348248;22;45192;-83
2023/11/26 09:00:12;;;;;;;;;22.33;22.33;;;;;8.41;73.01;101259.59;6338054;22;44676;-83
2023/11/26 09:02:38;;;;;;;;;18.00;16.00;;;;;8.49;72.98;101258.06;6314115;22;44729;-84
2023/11/26 09:05:07;;;;;;;;;19.67;19.67;;;;;8.58;72.50;101252.13;6314265;22;44938;-84
2023/11/26 09:07:41;;;;;;;;;22.00;19.67;;;;;8.68;72.61;101253.31;6315589;22;46025;-84
2023/11/26 09:10:09;;;;;;;;;9.67;7.67;;;;;8.84;72.08;101252.03;6312859;22;44903;-82
2023/11/26 09:12:37;;;;;;;;;19.00;18.00;;;;;8.73;72.19;101246.41;6313428;22;44795;-83
2023/11/26 09:15:12;;;;;;;;;16.67;11.00;;;;;8.76;71.76;101243.84;6314838;22;44761;-84
2023/11/26 09:17:38;;;;;;;;;15.67;15.67;;;;;8.69;71.65;101247.19;6286875;22;47170;-84
2023/11/26 09:20:11;;;;;;;;;19.00;16.00;;;;;8.81;71.81;101252.84;6313244;22;45413;-83
2023/11/26 09:22:38;;;;;;;;;16.00;16.00;;;;;8.81;71.73;101248.44;6313260;22;44944;-83
2023/11/26 09:25:05;;;;;;;;;19.33;16.00;;;;;8.87;71.43;101254.78;6314521;22;44779;-83
2023/11/26 09:27:30;;;;;;;;;18.00;15.67;;;;;8.87;71.18;101255.66;6313284;22;48374;-83
2023/11/26 09:29:55;;;;;;;;;14.33;14.00;;;;;8.92;70.95;101267.31;6312287;22;59928;-83
2023/11/26 09:32:21;;;;;;;;;18.33;17.00;;;;;8.90;71.52;101266.34;6313058;22;44890;-82
2023/11/26 09:34:47;;;;;;;;;18.67;18.67;;;;;8.89;71.03;101258.38;6314052;22;55717;-83
2023/11/26 09:37:20;;;;;;;;;19.00;17.67;;;;;8.96;71.21;101265.66;6288339;22;45324;-84
2023/11/26 09:39:46;;;;;;;;;18.00;17.67;;;;;9.00;70.77;101263.13;6314138;22;44864;-84
2023/11/26 09:42:12;;;;;;;;;15.67;15.67;;;;;9.02;71.01;101256.09;6313445;22;44764;-83
2023/11/26 09:44:42;;;;;;;;;15.67;15.67;;;;;9.08;71.09;101265.09;6316575;22;44775;-84
2023/11/26 09:47:08;;;;;;;;;22.67;19.67;;;;;9.14;70.99;101260.84;6316339;22;44941;-84
2023/11/26 09:49:33;;;;;;;;;20.00;18.00;;;;;9.17;70.95;101255.66;6312529;22;44851;-84
2023/11/26 09:52:01;;;;;;;;;17.00;17.00;;;;;9.33;70.91;101258.72;6314810;22;44735;-83
2023/11/26 09:54:26;;;;;;;;;16.33;16.33;;;;;9.29;70.36;101244.47;6313629;22;44786;-84
2023/11/26 09:56:57;;;;;;;;;19.33;19.33;;;;;9.58;70.32;101253.22;6313184;22;46140;-83
2023/11/26 09:59:31;;;;;;;;;18.67;17.00;;;;;9.69;69.90;101252.59;6313133;22;45312;-84
2023/11/26 10:02:07;;;;;;;;;16.00;14.67;;;;;9.76;69.88;101250.13;6315464;22;45290;-84
2023/11/26 10:04:46;;;;;;;;;19.00;15.00;;;;;9.85;69.71;101229.97;6313935;22;45188;-83
2023/11/26 10:07:12;;;;;;;;;18.33;16.33;;;;;9.69;69.42;101229.56;6316147;22;45381;-84
2023/11/26 10:09:37;;;;;;;;;15.00;15.00;;;;;9.75;69.60;101231.50;6316814;22;44711;-84
2023/11/26 10:12:03;;;;;;;;;18.00;16.33;;;;;9.78;69.56;101229.81;6314990;22;45287;-84
2023/11/26 10:14:29;;;;;;;;;25.67;22.33;;;;;9.70;69.21;101211.91;6314906;22;44795;-84
2023/11/26 10:16:55;;;;;;;;;22.67;21.67;;;;;9.68;69.42;101227.78;6317010;22;45172;-84
2023/11/26 10:19:25;;;;;;;;;25.33;24.67;;;;;9.88;69.22;101233.63;6314845;22;44931;-84
2023/11/26 10:22:01;;;;;;;;;30.00;25.00;;;;;9.81;69.62;101231.66;6314848;22;44876;-84
2023/11/26 10:24:28;;;;;;;;;20.00;19.67;;;;;9.80;69.34;101225.44;6314229;22;44812;-84
2023/11/26 10:26:57;;;;;;;;;20.00;20.00;;;;;9.84;69.42;101222.84;6314792;22;45382;-84
2023/11/26 10:29:25;;;;;;;;;21.00;20.00;;;;;9.86;69.38;101223.81;6312821;22;45244;-84
2023/11/26 10:32:07;;;;;;;;;14.33;12.67;;;;;10.20;69.43;101207.81;6314699;22;44799;-84
2023/11/26 10:34:37;;;;;;;;;16.33;13.33;;;;;10.26;69.02;101208.78;6312949;22;44896;-83
2023/11/26 10:37:17;;;;;;;;;18.33;18.00;;;;;10.41;68.88;101215.41;6311936;22;47260;-83
2023/11/26 10:39:43;;;;;;;;;17.00;15.67;;;;;10.33;68.83;101201.03;6315965;22;45374;-84
2023/11/26 10:42:09;;;;;;;;;14.00;14.00;;;;;10.50;68.63;101200.50;6317939;22;45269;-83
2023/11/26 10:44:37;;;;;;;;;20.67;20.67;;;;;10.52;67.70;101197.03;6316263;22;44768;-83
2023/11/26 10:47:05;;;;;;;;;18.33;18.33;;;;;10.46;67.69;101191.56;6314312;22;45663;-84
2023/11/26 10:49:39;;;;;;;;;16.00;12.00;;;;;10.50;67.94;101200.50;6314551;22;44751;-84
2023/11/26 10:52:15;;;;;;;;;7.67;7.67;;;;;10.66;67.95;101202.63;6314362;22;44695;-83
2023/11/26 10:54:40;;;;;;;;;15.33;13.33;;;;;10.48;67.39;101203.13;6313732;22;44894;-83
2023/11/26 11:00:29;;;;;;;;;16.33;15.00;;;;;10.53;67.83;101208.56;6341288;22;44831;-83
2023/11/26 11:02:56;;;;;;;;;16.33;15.00;;;;;10.63;67.76;101207.88;6317548;22;44803;-83
2023/11/26 11:05:22;;;;;;;;;12.67;12.67;;;;;10.64;67.39;101199.03;6346036;22;44702;-84
2023/11/26 11:07:48;;;;;;;;;15.67;13.67;;;;;10.77;67.73;101208.19;6290526;22;47329;-83
2023/11/26 11:13:37;;;;;;;;;16.33;13.67;;;;;11.12;67.25;101200.88;6348141;22;44812;-83
2023/11/26 11:16:03;;;;;;;;;7.67;7.67;;;;;11.13;66.80;101178.75;6348904;22;44705;-83
2023/11/26 11:18:30;;;;;;;;;10.67;10.67;;;;;11.18;66.82;101181.47;6317722;22;47674;-83
2023/11/26 11:21:12;;;;;;;;;15.00;14.33;;;;;11.41;66.67;101163.25;6316191;22;44817;-83
2023/11/26 11:23:39;;;;;;;;;16.00;16.00;;;;;11.34;66.20;101170.25;6317655;22;45205;-83
2023/11/26 11:26:09;;;;;;;;;11.00;10.33;;;;;11.27;65.50;101165.69;6314728;22;44861;-83
2023/11/26 11:28:47;;;;;;;;;13.00;11.00;;;;;11.44;65.39;101163.31;6318889;22;47038;-83
2023/11/26 11:31:14;;;;;;;;;11.67;10.33;;;;;11.34;65.62;101170.25;6344453;22;45096;-83
2023/11/26 11:33:58;;;;;;;;;9.67;9.67;;;;;11.54;64.76;101170.59;6316299;22;44856;-83